sensor_id;sensor_type;location;lat;lon;timestamp;temperature;humidity
40822;DHT22;26542;50.836;5.356;2022-10-31T00:00:27;15.70;99.90
40822;DHT22;26542;50.836;5.356;2022-10-31T00:02:53;15.70;99.90
40822;DHT22;26542;50.836;5.356;2022-10-31T00:05:21;15.70;99.90
40822;DHT22;26542;50.836;5.356;2022-10-31T00:07:52;15.80;99.90
40822;DHT22;26542;50.836;5.356;2022-10-31T00:10:21;15.80;99.90
40822;DHT22;26542;50.836;5.356;2022-10-31T00:12:47;15.80;99.90
40822;DHT22;26542;50.836;5.356;2022-10-31T00:15:15;15.80;99.90
40822;DHT22;26542;50.836;5.356;2022-10-31T00:17:41;15.80;99.90
40822;DHT22;26542;50.836;5.356;2022-10-31T00:20:07;15.80;99.90
40822;DHT22;26542;50.836;5.356;2022-10-31T00:22:32;15.80;99.90
40822;DHT22;26542;50.836;5.356;2022-10-31T00:24:58;15.80;99.90
40822;DHT22;26542;50.836;5.356;2022-10-31T00:27:24;15.80;99.90
40822;DHT22;26542;50.836;5.356;2022-10-31T00:29:49;15.80;99.90
40822;DHT22;26542;50.836;5.356;2022-10-31T00:32:15;15.90;99.90
40822;DHT22;26542;50.836;5.356;2022-10-31T00:34:41;15.90;99.90
40822;DHT22;26542;50.836;5.356;2022-10-31T00:37:07;15.90;99.90
40822;DHT22;26542;50.836;5.356;2022-10-31T00:39:33;15.80;99.90
40822;DHT22;26542;50.836;5.356;2022-10-31T00:42:01;15.80;99.90
40822;DHT22;26542;50.836;5.356;2022-10-31T00:44:26;15.80;99.90
40822;DHT22;26542;50.836;5.356;2022-10-31T00:46:52;15.70;99.90
40822;DHT22;26542;50.836;5.356;2022-10-31T00:49:17;15.70;99.90
40822;DHT22;26542;50.836;5.356;2022-10-31T00:51:43;15.70;99.90
40822;DHT22;26542;50.836;5.356;2022-10-31T00:54:09;15.70;99.90
40822;DHT22;26542;50.836;5.356;2022-10-31T00:56:34;15.60;99.90
40822;DHT22;26542;50.836;5.356;2022-10-31T00:59:00;15.70;99.90
40822;DHT22;26542;50.836;5.356;2022-10-31T01:01:26;15.70;99.90
40822;DHT22;26542;50.836;5.356;2022-10-31T01:03:54;15.60;99.90
40822;DHT22;26542;50.836;5.356;2022-10-31T01:06:20;15.60;99.90
40822;DHT22;26542;50.836;5.356;2022-10-31T01:08:46;15.60;99.90
40822;DHT22;26542;50.836;5.356;2022-10-31T01:11:22;15.60;99.90
40822;DHT22;26542;50.836;5.356;2022-10-31T01:13:53;15.60;99.90
40822;DHT22;26542;50.836;5.356;2022-10-31T01:16:22;15.60;99.90
40822;DHT22;26542;50.836;5.356;2022-10-31T01:18:49;15.50;99.90
40822;DHT22;26542;50.836;5.356;2022-10-31T01:21:21;15.50;99.90
40822;DHT22;26542;50.836;5.356;2022-10-31T01:23:47;15.50;99.90
40822;DHT22;26542;50.836;5.356;2022-10-31T01:26:19;15.50;99.90
40822;DHT22;26542;50.836;5.356;2022-10-31T01:28:48;15.40;99.90
40822;DHT22;26542;50.836;5.356;2022-10-31T01:31:14;15.40;99.90
40822;DHT22;26542;50.836;5.356;2022-10-31T01:33:41;15.40;99.90
40822;DHT22;26542;50.836;5.356;2022-10-31T01:36:31;15.40;99.90
40822;DHT22;26542;50.836;5.356;2022-10-31T01:39:02;15.40;99.90
40822;DHT22;26542;50.836;5.356;2022-10-31T01:41:30;15.40;99.90
40822;DHT22;26542;50.836;5.356;2022-10-31T01:47:16;15.30;99.90
40822;DHT22;26542;50.836;5.356;2022-10-31T01:49:52;15.30;99.90
40822;DHT22;26542;50.836;5.356;2022-10-31T01:52:26;15.20;99.90
40822;DHT22;26542;50.836;5.356;2022-10-31T01:57:27;15.20;99.90
40822;DHT22;26542;50.836;5.356;2022-10-31T01:59:57;15.10;99.90
40822;DHT22;26542;50.836;5.356;2022-10-31T02:02:25;15.10;99.90
40822;DHT22;26542;50.836;5.356;2022-10-31T02:05:01;15.20;99.90
40822;DHT22;26542;50.836;5.356;2022-10-31T02:07:32;15.10;99.90
40822;DHT22;26542;50.836;5.356;2022-10-31T02:10:04;15.10;99.90
40822;DHT22;26542;50.836;5.356;2022-10-31T02:12:31;15.00;99.90
40822;DHT22;26542;50.836;5.356;2022-10-31T02:14:59;15.00;99.90
40822;DHT22;26542;50.836;5.356;2022-10-31T02:17:25;15.00;99.90
40822;DHT22;26542;50.836;5.356;2022-10-31T02:22:46;14.90;99.90
40822;DHT22;26542;50.836;5.356;2022-10-31T02:33:23;14.70;99.90
40822;DHT22;26542;50.836;5.356;2022-10-31T02:36:14;14.70;99.90
40822;DHT22;26542;50.836;5.356;2022-10-31T02:39:11;14.60;99.90
40822;DHT22;26542;50.836;5.356;2022-10-31T02:42:09;14.50;99.90
40822;DHT22;26542;50.836;5.356;2022-10-31T02:44:59;14.40;99.90
40822;DHT22;26542;50.836;5.356;2022-10-31T02:47:39;14.40;99.90
40822;DHT22;26542;50.836;5.356;2022-10-31T02:50:16;14.50;99.90
40822;DHT22;26542;50.836;5.356;2022-10-31T02:52:49;14.50;99.90
40822;DHT22;26542;50.836;5.356;2022-10-31T02:58:04;14.50;99.90
40822;DHT22;26542;50.836;5.356;2022-10-31T03:01:04;14.40;99.90
40822;DHT22;26542;50.836;5.356;2022-10-31T03:03:53;14.50;99.90
40822;DHT22;26542;50.836;5.356;2022-10-31T03:06:30;14.40;99.90
40822;DHT22;26542;50.836;5.356;2022-10-31T03:11:35;14.40;99.90
40822;DHT22;26542;50.836;5.356;2022-10-31T03:14:11;14.50;99.90
40822;DHT22;26542;50.836;5.356;2022-10-31T03:16:49;14.50;99.90
40822;DHT22;26542;50.836;5.356;2022-10-31T03:19:36;14.50;99.90
40822;DHT22;26542;50.836;5.356;2022-10-31T03:22:24;14.50;99.90
40822;DHT22;26542;50.836;5.356;2022-10-31T03:24:52;14.50;99.90
40822;DHT22;26542;50.836;5.356;2022-10-31T03:27:22;14.50;99.90
40822;DHT22;26542;50.836;5.356;2022-10-31T03:29:50;14.50;99.90
40822;DHT22;26542;50.836;5.356;2022-10-31T03:32:31;14.60;99.90
40822;DHT22;26542;50.836;5.356;2022-10-31T03:35:00;14.50;99.90
40822;DHT22;26542;50.836;5.356;2022-10-31T03:37:32;14.50;99.90
40822;DHT22;26542;50.836;5.356;2022-10-31T03:40:00;14.60;99.90
40822;DHT22;26542;50.836;5.356;2022-10-31T03:42:36;14.50;99.90
40822;DHT22;26542;50.836;5.356;2022-10-31T03:45:12;14.60;99.90
40822;DHT22;26542;50.836;5.356;2022-10-31T03:47:39;14.60;99.90
40822;DHT22;26542;50.836;5.356;2022-10-31T03:50:07;14.60;99.90
40822;DHT22;26542;50.836;5.356;2022-10-31T03:52:55;14.60;99.90
40822;DHT22;26542;50.836;5.356;2022-10-31T03:55:55;14.50;99.90
40822;DHT22;26542;50.836;5.356;2022-10-31T03:58:23;14.50;99.90
40822;DHT22;26542;50.836;5.356;2022-10-31T04:00:52;14.50;99.90
40822;DHT22;26542;50.836;5.356;2022-10-31T04:03:28;14.50;99.90
40822;DHT22;26542;50.836;5.356;2022-10-31T04:05:58;14.60;99.90
40822;DHT22;26542;50.836;5.356;2022-10-31T04:08:28;14.50;99.90
40822;DHT22;26542;50.836;5.356;2022-10-31T04:10:56;14.50;99.90
40822;DHT22;26542;50.836;5.356;2022-10-31T04:13:27;14.50;99.90
40822;DHT22;26542;50.836;5.356;2022-10-31T04:15:55;14.40;99.90
40822;DHT22;26542;50.836;5.356;2022-10-31T04:18:23;14.40;99.90
40822;DHT22;26542;50.836;5.356;2022-10-31T04:20:48;14.40;99.90
40822;DHT22;26542;50.836;5.356;2022-10-31T04:23:25;14.30;99.90
40822;DHT22;26542;50.836;5.356;2022-10-31T04:25:51;14.30;99.90
40822;DHT22;26542;50.836;5.356;2022-10-31T04:28:18;14.20;99.90
40822;DHT22;26542;50.836;5.356;2022-10-31T04:30:46;14.30;99.90
40822;DHT22;26542;50.836;5.356;2022-10-31T04:33:15;14.20;99.90
40822;DHT22;26542;50.836;5.356;2022-10-31T04:35:41;14.20;99.90
40822;DHT22;26542;50.836;5.356;2022-10-31T04:38:07;14.20;99.90
40822;DHT22;26542;50.836;5.356;2022-10-31T04:40:34;14.10;99.90
40822;DHT22;26542;50.836;5.356;2022-10-31T04:43:00;14.10;99.90
40822;DHT22;26542;50.836;5.356;2022-10-31T04:45:26;14.20;99.90
40822;DHT22;26542;50.836;5.356;2022-10-31T04:47:51;14.10;99.90
40822;DHT22;26542;50.836;5.356;2022-10-31T04:50:17;14.00;99.90
40822;DHT22;26542;50.836;5.356;2022-10-31T04:52:44;14.00;99.90
40822;DHT22;26542;50.836;5.356;2022-10-31T04:55:10;13.90;99.90
40822;DHT22;26542;50.836;5.356;2022-10-31T04:57:47;14.00;99.90
40822;DHT22;26542;50.836;5.356;2022-10-31T05:00:15;13.90;99.90
40822;DHT22;26542;50.836;5.356;2022-10-31T05:02:52;13.90;99.90
40822;DHT22;26542;50.836;5.356;2022-10-31T05:05:21;13.90;99.90
40822;DHT22;26542;50.836;5.356;2022-10-31T05:07:48;13.80;99.90
40822;DHT22;26542;50.836;5.356;2022-10-31T05:10:17;13.80;99.90
40822;DHT22;26542;50.836;5.356;2022-10-31T05:13:03;13.70;99.90
40822;DHT22;26542;50.836;5.356;2022-10-31T05:15:29;13.70;99.90
40822;DHT22;26542;50.836;5.356;2022-10-31T05:17:57;13.70;99.90
40822;DHT22;26542;50.836;5.356;2022-10-31T05:20:27;13.70;99.90
40822;DHT22;26542;50.836;5.356;2022-10-31T05:22:55;13.70;99.90
40822;DHT22;26542;50.836;5.356;2022-10-31T05:25:26;13.80;99.90
40822;DHT22;26542;50.836;5.356;2022-10-31T05:27:53;13.80;99.90
40822;DHT22;26542;50.836;5.356;2022-10-31T05:30:24;13.80;99.90
40822;DHT22;26542;50.836;5.356;2022-10-31T05:32:51;13.80;99.90
40822;DHT22;26542;50.836;5.356;2022-10-31T05:35:25;13.70;99.90
40822;DHT22;26542;50.836;5.356;2022-10-31T05:37:52;13.70;99.90
40822;DHT22;26542;50.836;5.356;2022-10-31T05:40:19;13.60;99.90
40822;DHT22;26542;50.836;5.356;2022-10-31T05:42:45;13.60;99.90
40822;DHT22;26542;50.836;5.356;2022-10-31T05:45:16;13.60;99.90
40822;DHT22;26542;50.836;5.356;2022-10-31T05:47:49;13.70;99.90
40822;DHT22;26542;50.836;5.356;2022-10-31T05:50:15;13.70;99.90
40822;DHT22;26542;50.836;5.356;2022-10-31T05:52:43;13.70;99.90
40822;DHT22;26542;50.836;5.356;2022-10-31T05:55:09;13.70;99.90
40822;DHT22;26542;50.836;5.356;2022-10-31T05:57:34;13.80;99.90
40822;DHT22;26542;50.836;5.356;2022-10-31T06:00:01;13.80;99.90
40822;DHT22;26542;50.836;5.356;2022-10-31T06:02:26;13.80;99.90
40822;DHT22;26542;50.836;5.356;2022-10-31T06:04:53;13.80;99.90
40822;DHT22;26542;50.836;5.356;2022-10-31T06:07:19;13.80;99.90
40822;DHT22;26542;50.836;5.356;2022-10-31T06:09:44;13.70;99.90
40822;DHT22;26542;50.836;5.356;2022-10-31T06:12:13;13.70;99.90
40822;DHT22;26542;50.836;5.356;2022-10-31T06:14:38;13.70;99.90
40822;DHT22;26542;50.836;5.356;2022-10-31T06:17:04;13.70;99.90
40822;DHT22;26542;50.836;5.356;2022-10-31T06:19:30;13.70;99.90
40822;DHT22;26542;50.836;5.356;2022-10-31T06:21:56;13.70;99.90
40822;DHT22;26542;50.836;5.356;2022-10-31T06:24:24;13.70;99.90
40822;DHT22;26542;50.836;5.356;2022-10-31T06:26:50;13.60;99.90
40822;DHT22;26542;50.836;5.356;2022-10-31T06:29:15;13.60;99.90
40822;DHT22;26542;50.836;5.356;2022-10-31T06:31:41;13.60;99.90
40822;DHT22;26542;50.836;5.356;2022-10-31T06:34:11;13.60;99.90
40822;DHT22;26542;50.836;5.356;2022-10-31T06:36:36;13.60;99.90
40822;DHT22;26542;50.836;5.356;2022-10-31T06:39:04;13.60;99.90
40822;DHT22;26542;50.836;5.356;2022-10-31T06:41:33;13.60;99.90
40822;DHT22;26542;50.836;5.356;2022-10-31T06:44:01;13.60;99.90
40822;DHT22;26542;50.836;5.356;2022-10-31T06:46:26;13.60;99.90
40822;DHT22;26542;50.836;5.356;2022-10-31T06:48:52;13.70;99.90
40822;DHT22;26542;50.836;5.356;2022-10-31T06:51:17;13.80;99.90
40822;DHT22;26542;50.836;5.356;2022-10-31T06:53:46;13.80;99.90
40822;DHT22;26542;50.836;5.356;2022-10-31T06:56:14;13.60;99.90
40822;DHT22;26542;50.836;5.356;2022-10-31T06:58:39;13.70;99.90
40822;DHT22;26542;50.836;5.356;2022-10-31T07:01:05;13.60;99.90
40822;DHT22;26542;50.836;5.356;2022-10-31T07:03:31;13.60;99.90
40822;DHT22;26542;50.836;5.356;2022-10-31T07:05:57;13.50;99.90
40822;DHT22;26542;50.836;5.356;2022-10-31T07:08:24;13.50;99.90
40822;DHT22;26542;50.836;5.356;2022-10-31T07:10:54;13.50;99.90
40822;DHT22;26542;50.836;5.356;2022-10-31T07:13:20;13.50;99.90
40822;DHT22;26542;50.836;5.356;2022-10-31T07:15:52;13.50;99.90
40822;DHT22;26542;50.836;5.356;2022-10-31T07:18:22;13.50;99.90
40822;DHT22;26542;50.836;5.356;2022-10-31T07:20:48;13.40;99.90
40822;DHT22;26542;50.836;5.356;2022-10-31T07:23:14;13.50;99.90
40822;DHT22;26542;50.836;5.356;2022-10-31T07:25:40;13.60;99.90
40822;DHT22;26542;50.836;5.356;2022-10-31T07:28:06;13.60;99.90
40822;DHT22;26542;50.836;5.356;2022-10-31T07:30:32;13.60;99.90
40822;DHT22;26542;50.836;5.356;2022-10-31T07:32:59;13.50;99.90
40822;DHT22;26542;50.836;5.356;2022-10-31T07:35:29;13.60;99.90
40822;DHT22;26542;50.836;5.356;2022-10-31T07:37:56;13.60;99.90
40822;DHT22;26542;50.836;5.356;2022-10-31T07:40:22;13.60;99.90
40822;DHT22;26542;50.836;5.356;2022-10-31T07:42:52;13.60;99.90
40822;DHT22;26542;50.836;5.356;2022-10-31T07:45:21;13.80;99.90
40822;DHT22;26542;50.836;5.356;2022-10-31T07:47:51;13.90;99.90
40822;DHT22;26542;50.836;5.356;2022-10-31T07:50:22;13.80;99.90
40822;DHT22;26542;50.836;5.356;2022-10-31T07:53:05;13.80;99.90
40822;DHT22;26542;50.836;5.356;2022-10-31T07:55:32;13.80;99.90
40822;DHT22;26542;50.836;5.356;2022-10-31T07:58:03;13.90;99.90
40822;DHT22;26542;50.836;5.356;2022-10-31T08:00:30;13.90;99.90
40822;DHT22;26542;50.836;5.356;2022-10-31T08:03:01;13.90;99.90
40822;DHT22;26542;50.836;5.356;2022-10-31T08:05:28;14.10;99.90
40822;DHT22;26542;50.836;5.356;2022-10-31T08:07:54;14.00;99.90
40822;DHT22;26542;50.836;5.356;2022-10-31T08:10:20;14.10;99.90
40822;DHT22;26542;50.836;5.356;2022-10-31T08:12:46;14.10;99.90
40822;DHT22;26542;50.836;5.356;2022-10-31T08:15:15;14.20;99.90
40822;DHT22;26542;50.836;5.356;2022-10-31T08:17:41;14.20;99.90
40822;DHT22;26542;50.836;5.356;2022-10-31T08:20:07;14.30;99.90
40822;DHT22;26542;50.836;5.356;2022-10-31T08:22:34;14.40;99.90
40822;DHT22;26542;50.836;5.356;2022-10-31T08:25:02;14.50;99.90
40822;DHT22;26542;50.836;5.356;2022-10-31T08:27:27;14.60;99.90
40822;DHT22;26542;50.836;5.356;2022-10-31T08:29:53;14.70;99.90
40822;DHT22;26542;50.836;5.356;2022-10-31T08:32:19;14.80;99.90
40822;DHT22;26542;50.836;5.356;2022-10-31T08:34:47;14.80;99.90
40822;DHT22;26542;50.836;5.356;2022-10-31T08:37:14;14.90;99.90
40822;DHT22;26542;50.836;5.356;2022-10-31T08:39:46;15.00;99.90
40822;DHT22;26542;50.836;5.356;2022-10-31T08:42:12;15.10;99.90
40822;DHT22;26542;50.836;5.356;2022-10-31T08:44:38;15.20;99.90
40822;DHT22;26542;50.836;5.356;2022-10-31T08:47:04;15.40;99.90
40822;DHT22;26542;50.836;5.356;2022-10-31T08:49:31;15.50;99.90
40822;DHT22;26542;50.836;5.356;2022-10-31T08:51:56;15.70;99.90
40822;DHT22;26542;50.836;5.356;2022-10-31T08:54:22;15.70;99.90
40822;DHT22;26542;50.836;5.356;2022-10-31T08:56:53;15.80;99.90
40822;DHT22;26542;50.836;5.356;2022-10-31T08:59:19;15.90;99.90
40822;DHT22;26542;50.836;5.356;2022-10-31T09:01:45;16.00;99.90
40822;DHT22;26542;50.836;5.356;2022-10-31T09:04:10;16.10;99.90
40822;DHT22;26542;50.836;5.356;2022-10-31T09:06:36;16.10;99.90
40822;DHT22;26542;50.836;5.356;2022-10-31T09:09:04;16.10;99.90
40822;DHT22;26542;50.836;5.356;2022-10-31T09:11:30;16.20;99.90
40822;DHT22;26542;50.836;5.356;2022-10-31T09:13:56;16.30;99.90
40822;DHT22;26542;50.836;5.356;2022-10-31T09:16:24;16.30;99.90
40822;DHT22;26542;50.836;5.356;2022-10-31T09:18:52;16.40;99.90
40822;DHT22;26542;50.836;5.356;2022-10-31T09:21:18;16.40;99.90
40822;DHT22;26542;50.836;5.356;2022-10-31T09:23:46;16.50;99.90
40822;DHT22;26542;50.836;5.356;2022-10-31T09:26:11;16.40;99.90
40822;DHT22;26542;50.836;5.356;2022-10-31T09:28:37;16.40;99.90
40822;DHT22;26542;50.836;5.356;2022-10-31T09:31:05;16.40;99.90
40822;DHT22;26542;50.836;5.356;2022-10-31T09:33:32;16.50;99.90
40822;DHT22;26542;50.836;5.356;2022-10-31T09:35:58;16.40;99.90
40822;DHT22;26542;50.836;5.356;2022-10-31T09:38:25;16.40;99.90
40822;DHT22;26542;50.836;5.356;2022-10-31T09:52:04;16.70;99.90
40822;DHT22;26542;50.836;5.356;2022-10-31T09:55:03;16.80;99.90
40822;DHT22;26542;50.836;5.356;2022-10-31T09:57:35;16.90;99.90
40822;DHT22;26542;50.836;5.356;2022-10-31T10:00:04;17.00;99.90
40822;DHT22;26542;50.836;5.356;2022-10-31T10:02:46;17.00;99.90
40822;DHT22;26542;50.836;5.356;2022-10-31T10:05:20;17.10;99.90
40822;DHT22;26542;50.836;5.356;2022-10-31T10:30:26;17.80;99.90
40822;DHT22;26542;50.836;5.356;2022-10-31T10:35:48;18.00;99.90
40822;DHT22;26542;50.836;5.356;2022-10-31T10:38:26;18.10;99.90
40822;DHT22;26542;50.836;5.356;2022-10-31T10:40:53;18.20;99.90
40822;DHT22;26542;50.836;5.356;2022-10-31T10:57:55;18.60;99.90
40822;DHT22;26542;50.836;5.356;2022-10-31T11:00:31;18.70;99.90
40822;DHT22;26542;50.836;5.356;2022-10-31T11:03:00;18.60;99.90
40822;DHT22;26542;50.836;5.356;2022-10-31T11:05:44;18.60;99.90
40822;DHT22;26542;50.836;5.356;2022-10-31T11:08:22;18.70;99.90
40822;DHT22;26542;50.836;5.356;2022-10-31T11:13:48;18.80;99.90
40822;DHT22;26542;50.836;5.356;2022-10-31T11:19:08;19.00;99.90
40822;DHT22;26542;50.836;5.356;2022-10-31T11:21:42;19.00;99.90
40822;DHT22;26542;50.836;5.356;2022-10-31T11:26:40;19.00;99.90
40822;DHT22;26542;50.836;5.356;2022-10-31T11:29:23;19.10;99.90
40822;DHT22;26542;50.836;5.356;2022-10-31T11:31:56;19.20;99.90
40822;DHT22;26542;50.836;5.356;2022-10-31T11:34:36;19.30;99.90
40822;DHT22;26542;50.836;5.356;2022-10-31T11:37:18;19.50;99.90
40822;DHT22;26542;50.836;5.356;2022-10-31T11:39:52;19.40;99.90
40822;DHT22;26542;50.836;5.356;2022-10-31T11:42:23;19.40;99.90
40822;DHT22;26542;50.836;5.356;2022-10-31T11:44:51;19.30;99.90
40822;DHT22;26542;50.836;5.356;2022-10-31T11:47:24;19.40;99.90
40822;DHT22;26542;50.836;5.356;2022-10-31T11:49:52;19.50;99.90
40822;DHT22;26542;50.836;5.356;2022-10-31T11:52:25;19.60;99.90
40822;DHT22;26542;50.836;5.356;2022-10-31T11:57:51;19.60;99.90
40822;DHT22;26542;50.836;5.356;2022-10-31T12:03:10;19.60;99.90
40822;DHT22;26542;50.836;5.356;2022-10-31T12:05:38;19.60;99.90
40822;DHT22;26542;50.836;5.356;2022-10-31T12:08:08;19.70;99.90
40822;DHT22;26542;50.836;5.356;2022-10-31T12:10:57;19.70;99.90
40822;DHT22;26542;50.836;5.356;2022-10-31T12:13:33;19.70;99.90
40822;DHT22;26542;50.836;5.356;2022-10-31T12:19:06;19.80;99.90
40822;DHT22;26542;50.836;5.356;2022-10-31T12:21:49;19.70;99.90
40822;DHT22;26542;50.836;5.356;2022-10-31T12:30:19;20.00;99.90
40822;DHT22;26542;50.836;5.356;2022-10-31T12:43:58;20.40;99.90
40822;DHT22;26542;50.836;5.356;2022-10-31T12:49:45;20.60;99.90
40822;DHT22;26542;50.836;5.356;2022-10-31T12:55:08;20.60;99.90
40822;DHT22;26542;50.836;5.356;2022-10-31T12:57:42;20.60;99.90
40822;DHT22;26542;50.836;5.356;2022-10-31T13:00:18;20.70;99.90
40822;DHT22;26542;50.836;5.356;2022-10-31T13:03:02;20.60;99.90
40822;DHT22;26542;50.836;5.356;2022-10-31T13:05:36;20.60;99.90
40822;DHT22;26542;50.836;5.356;2022-10-31T13:08:06;20.80;99.90
40822;DHT22;26542;50.836;5.356;2022-10-31T13:10:40;20.70;99.90
40822;DHT22;26542;50.836;5.356;2022-10-31T13:13:24;20.80;99.90
40822;DHT22;26542;50.836;5.356;2022-10-31T13:16:03;20.70;99.90
40822;DHT22;26542;50.836;5.356;2022-10-31T13:18:42;20.70;99.90
40822;DHT22;26542;50.836;5.356;2022-10-31T13:21:26;20.70;99.90
40822;DHT22;26542;50.836;5.356;2022-10-31T13:23:58;20.70;99.90
40822;DHT22;26542;50.836;5.356;2022-10-31T13:26:42;20.60;99.90
40822;DHT22;26542;50.836;5.356;2022-10-31T13:29:27;20.70;99.90
40822;DHT22;26542;50.836;5.356;2022-10-31T13:31:56;20.70;99.90
40822;DHT22;26542;50.836;5.356;2022-10-31T13:34:34;20.80;99.90
40822;DHT22;26542;50.836;5.356;2022-10-31T13:37:11;20.90;99.90
40822;DHT22;26542;50.836;5.356;2022-10-31T13:40:11;20.90;99.90
40822;DHT22;26542;50.836;5.356;2022-10-31T13:45:24;21.30;99.90
40822;DHT22;26542;50.836;5.356;2022-10-31T13:48:46;21.50;99.90
40822;DHT22;26542;50.836;5.356;2022-10-31T13:50:59;21.70;99.40
40822;DHT22;26542;50.836;5.356;2022-10-31T13:53:45;21.90;99.60
40822;DHT22;26542;50.836;5.356;2022-10-31T13:56:15;21.90;99.50
40822;DHT22;26542;50.836;5.356;2022-10-31T13:59:35;22.00;99.40
40822;DHT22;26542;50.836;5.356;2022-10-31T14:02:00;22.10;98.80
40822;DHT22;26542;50.836;5.356;2022-10-31T14:04:44;22.10;98.70
40822;DHT22;26542;50.836;5.356;2022-10-31T14:07:14;22.20;98.50
40822;DHT22;26542;50.836;5.356;2022-10-31T14:09:54;22.30;99.00
40822;DHT22;26542;50.836;5.356;2022-10-31T14:12:30;22.20;98.50
40822;DHT22;26542;50.836;5.356;2022-10-31T14:15:16;22.20;99.00
40822;DHT22;26542;50.836;5.356;2022-10-31T14:18:04;22.30;99.20
40822;DHT22;26542;50.836;5.356;2022-10-31T14:20:39;22.40;99.00
40822;DHT22;26542;50.836;5.356;2022-10-31T14:28:47;22.40;99.10
40822;DHT22;26542;50.836;5.356;2022-10-31T14:48:24;22.20;98.60
40822;DHT22;26542;50.836;5.356;2022-10-31T14:51:00;22.30;98.00
40822;DHT22;26542;50.836;5.356;2022-10-31T14:53:28;22.40;97.80
40822;DHT22;26542;50.836;5.356;2022-10-31T14:55:56;22.40;97.30
40822;DHT22;26542;50.836;5.356;2022-10-31T15:00:56;22.40;97.10
40822;DHT22;26542;50.836;5.356;2022-10-31T15:06:21;22.40;96.60
40822;DHT22;26542;50.836;5.356;2022-10-31T15:08:50;22.40;96.50
40822;DHT22;26542;50.836;5.356;2022-10-31T15:11:19;22.40;96.10
40822;DHT22;26542;50.836;5.356;2022-10-31T15:13:49;22.30;95.70
40822;DHT22;26542;50.836;5.356;2022-10-31T15:16:23;22.20;96.00
40822;DHT22;26542;50.836;5.356;2022-10-31T15:19:03;22.10;95.90
40822;DHT22;26542;50.836;5.356;2022-10-31T15:21:30;21.90;95.70
40822;DHT22;26542;50.836;5.356;2022-10-31T15:23:58;21.90;95.70
40822;DHT22;26542;50.836;5.356;2022-10-31T15:26:38;21.80;95.30
40822;DHT22;26542;50.836;5.356;2022-10-31T15:29:12;21.80;94.90
40822;DHT22;26542;50.836;5.356;2022-10-31T15:31:38;21.80;94.80
40822;DHT22;26542;50.836;5.356;2022-10-31T15:34:14;21.70;94.70
40822;DHT22;26542;50.836;5.356;2022-10-31T15:36:42;21.60;94.70
40822;DHT22;26542;50.836;5.356;2022-10-31T15:39:11;21.50;94.90
40822;DHT22;26542;50.836;5.356;2022-10-31T15:42:03;21.30;95.00
40822;DHT22;26542;50.836;5.356;2022-10-31T15:44:35;21.20;95.00
40822;DHT22;26542;50.836;5.356;2022-10-31T15:47:04;21.00;95.10
40822;DHT22;26542;50.836;5.356;2022-10-31T15:49:40;21.00;95.10
40822;DHT22;26542;50.836;5.356;2022-10-31T15:52:57;20.90;95.30
40822;DHT22;26542;50.836;5.356;2022-10-31T15:55:25;20.80;95.30
40822;DHT22;26542;50.836;5.356;2022-10-31T15:57:52;20.70;95.30
40822;DHT22;26542;50.836;5.356;2022-10-31T16:00:42;20.60;95.30
40822;DHT22;26542;50.836;5.356;2022-10-31T16:13:40;20.30;96.30
40822;DHT22;26542;50.836;5.356;2022-10-31T16:16:16;20.10;96.50
40822;DHT22;26542;50.836;5.356;2022-10-31T16:18:43;19.90;96.80
40822;DHT22;26542;50.836;5.356;2022-10-31T16:21:10;19.80;96.90
40822;DHT22;26542;50.836;5.356;2022-10-31T16:23:43;19.70;96.90
40822;DHT22;26542;50.836;5.356;2022-10-31T16:26:16;19.60;96.70
40822;DHT22;26542;50.836;5.356;2022-10-31T16:28:53;19.50;96.50
40822;DHT22;26542;50.836;5.356;2022-10-31T16:31:36;19.50;96.60
40822;DHT22;26542;50.836;5.356;2022-10-31T16:34:22;19.30;96.60
40822;DHT22;26542;50.836;5.356;2022-10-31T16:36:48;19.20;96.60
40822;DHT22;26542;50.836;5.356;2022-10-31T16:39:14;19.20;96.60
40822;DHT22;26542;50.836;5.356;2022-10-31T16:41:42;19.10;96.70
40822;DHT22;26542;50.836;5.356;2022-10-31T16:46:47;18.90;96.70
40822;DHT22;26542;50.836;5.356;2022-10-31T16:49:13;18.80;96.80
40822;DHT22;26542;50.836;5.356;2022-10-31T16:51:41;18.80;96.80
40822;DHT22;26542;50.836;5.356;2022-10-31T16:54:09;18.70;97.00
40822;DHT22;26542;50.836;5.356;2022-10-31T16:56:36;18.60;97.00
40822;DHT22;26542;50.836;5.356;2022-10-31T16:59:09;18.50;97.00
40822;DHT22;26542;50.836;5.356;2022-10-31T17:01:40;18.40;97.10
40822;DHT22;26542;50.836;5.356;2022-10-31T17:04:11;18.40;97.30
40822;DHT22;26542;50.836;5.356;2022-10-31T17:06:40;18.40;97.20
40822;DHT22;26542;50.836;5.356;2022-10-31T17:09:08;18.30;97.10
40822;DHT22;26542;50.836;5.356;2022-10-31T17:11:40;18.30;97.10
40822;DHT22;26542;50.836;5.356;2022-10-31T17:14:08;18.20;97.30
40822;DHT22;26542;50.836;5.356;2022-10-31T17:16:34;18.20;97.40
40822;DHT22;26542;50.836;5.356;2022-10-31T17:19:09;18.10;97.40
40822;DHT22;26542;50.836;5.356;2022-10-31T17:21:36;18.10;97.50
40822;DHT22;26542;50.836;5.356;2022-10-31T17:24:02;18.10;97.50
40822;DHT22;26542;50.836;5.356;2022-10-31T17:26:30;18.10;97.60
40822;DHT22;26542;50.836;5.356;2022-10-31T17:28:58;18.00;97.60
40822;DHT22;26542;50.836;5.356;2022-10-31T17:31:31;18.00;97.70
40822;DHT22;26542;50.836;5.356;2022-10-31T17:34:05;17.90;97.70
40822;DHT22;26542;50.836;5.356;2022-10-31T17:36:32;17.80;97.80
40822;DHT22;26542;50.836;5.356;2022-10-31T17:39:01;17.90;97.90
40822;DHT22;26542;50.836;5.356;2022-10-31T17:41:27;17.80;97.90
40822;DHT22;26542;50.836;5.356;2022-10-31T17:43:59;17.80;97.90
40822;DHT22;26542;50.836;5.356;2022-10-31T17:46:25;17.70;98.20
40822;DHT22;26542;50.836;5.356;2022-10-31T17:48:51;17.70;98.20
40822;DHT22;26542;50.836;5.356;2022-10-31T17:51:17;17.60;98.30
40822;DHT22;26542;50.836;5.356;2022-10-31T17:53:43;17.50;98.30
40822;DHT22;26542;50.836;5.356;2022-10-31T17:56:17;17.60;98.40
40822;DHT22;26542;50.836;5.356;2022-10-31T17:58:42;17.50;98.50
40822;DHT22;26542;50.836;5.356;2022-10-31T18:01:13;17.50;98.60
40822;DHT22;26542;50.836;5.356;2022-10-31T18:03:41;17.50;98.60
40822;DHT22;26542;50.836;5.356;2022-10-31T18:06:08;17.40;98.60
40822;DHT22;26542;50.836;5.356;2022-10-31T18:08:38;17.30;98.70
40822;DHT22;26542;50.836;5.356;2022-10-31T18:11:05;17.40;98.70
40822;DHT22;26542;50.836;5.356;2022-10-31T18:13:34;17.30;98.80
40822;DHT22;26542;50.836;5.356;2022-10-31T18:16:00;17.30;99.00
40822;DHT22;26542;50.836;5.356;2022-10-31T18:18:26;17.20;99.10
40822;DHT22;26542;50.836;5.356;2022-10-31T18:20:56;17.30;99.10
40822;DHT22;26542;50.836;5.356;2022-10-31T18:23:22;17.30;99.00
40822;DHT22;26542;50.836;5.356;2022-10-31T18:25:47;17.30;99.00
40822;DHT22;26542;50.836;5.356;2022-10-31T18:28:13;17.30;99.00
40822;DHT22;26542;50.836;5.356;2022-10-31T18:30:41;17.30;99.00